sensor_id;sensor_type;location;lat;lon;timestamp;pressure;altitude;pressure_sealevel;temperature;humidity
61618;BME280;47518;51.776;9.370;2023-06-19T00:01:14;99741.41;;;23.16;42.70
61618;BME280;47518;51.776;9.370;2023-06-19T00:03:39;99748.81;;;22.95;43.36
61618;BME280;47518;51.776;9.370;2023-06-19T00:06:05;99757.47;;;23.14;42.79
61618;BME280;47518;51.776;9.370;2023-06-19T00:08:31;99744.66;;;23.03;43.50
61618;BME280;47518;51.776;9.370;2023-06-19T00:10:56;99751.38;;;23.17;42.80
61618;BME280;47518;51.776;9.370;2023-06-19T00:13:21;99744.47;;;23.20;41.83
61618;BME280;47518;51.776;9.370;2023-06-19T00:15:47;99744.78;;;23.39;41.09
61618;BME280;47518;51.776;9.370;2023-06-19T00:18:12;99737.56;;;23.43;40.48
61618;BME280;47518;51.776;9.370;2023-06-19T00:20:38;99739.22;;;23.44;40.45
61618;BME280;47518;51.776;9.370;2023-06-19T00:23:05;99734.03;;;23.63;40.36
61618;BME280;47518;51.776;9.370;2023-06-19T00:25:31;99736.75;;;23.57;40.37
61618;BME280;47518;51.776;9.370;2023-06-19T00:27:56;99730.38;;;23.57;40.89
61618;BME280;47518;51.776;9.370;2023-06-19T00:30:22;99726.78;;;23.72;39.56
61618;BME280;47518;51.776;9.370;2023-06-19T00:32:47;99712.66;;;23.63;41.08
61618;BME280;47518;51.776;9.370;2023-06-19T00:35:15;99721.25;;;23.67;40.83
61618;BME280;47518;51.776;9.370;2023-06-19T00:37:41;99719.88;;;23.64;39.90
61618;BME280;47518;51.776;9.370;2023-06-19T00:40:12;99724.59;;;23.64;40.39
61618;BME280;47518;51.776;9.370;2023-06-19T00:42:40;99715.16;;;23.75;40.26
61618;BME280;47518;51.776;9.370;2023-06-19T00:45:05;99723.19;;;23.81;39.77
61618;BME280;47518;51.776;9.370;2023-06-19T00:47:33;99730.97;;;23.74;39.85
61618;BME280;47518;51.776;9.370;2023-06-19T00:49:59;99719.88;;;23.74;39.33
61618;BME280;47518;51.776;9.370;2023-06-19T00:52:24;99723.47;;;23.70;39.72
61618;BME280;47518;51.776;9.370;2023-06-19T00:54:49;99722.09;;;23.67;39.35
61618;BME280;47518;51.776;9.370;2023-06-19T00:57:15;99738.47;;;23.89;38.81
61618;BME280;47518;51.776;9.370;2023-06-19T00:59:40;99745.09;;;23.83;39.21
61618;BME280;47518;51.776;9.370;2023-06-19T01:02:06;99738.72;;;23.67;39.50
61618;BME280;47518;51.776;9.370;2023-06-19T01:04:31;99736.25;;;23.76;39.45
61618;BME280;47518;51.776;9.370;2023-06-19T01:07:02;99742.63;;;23.66;39.55
61618;BME280;47518;51.776;9.370;2023-06-19T01:09:31;99735.38;;;23.60;40.27
61618;BME280;47518;51.776;9.370;2023-06-19T01:12:06;99728.72;;;23.71;39.39
61618;BME280;47518;51.776;9.370;2023-06-19T01:14:39;99718.75;;;23.75;39.38
61618;BME280;47518;51.776;9.370;2023-06-19T01:17:06;99718.22;;;23.63;39.48
61618;BME280;47518;51.776;9.370;2023-06-19T01:19:32;99710.94;;;23.52;39.36
61618;BME280;47518;51.776;9.370;2023-06-19T01:22:02;99706.78;;;23.39;40.50
61618;BME280;47518;51.776;9.370;2023-06-19T01:24:28;99701.78;;;23.46;40.33
61618;BME280;47518;51.776;9.370;2023-06-19T01:26:54;99704.06;;;23.65;40.20
61618;BME280;47518;51.776;9.370;2023-06-19T01:29:21;99706.22;;;23.42;40.84
61618;BME280;47518;51.776;9.370;2023-06-19T01:32:00;99703.72;;;23.41;40.66
61618;BME280;47518;51.776;9.370;2023-06-19T01:34:35;99699.00;;;23.46;40.92
61618;BME280;47518;51.776;9.370;2023-06-19T01:37:02;99704.84;;;23.45;40.81
61618;BME280;47518;51.776;9.370;2023-06-19T01:39:28;99700.63;;;23.22;41.66
61618;BME280;47518;51.776;9.370;2023-06-19T01:41:54;99700.09;;;23.35;42.48
61618;BME280;47518;51.776;9.370;2023-06-19T01:44:20;99704.78;;;23.09;41.41
61618;BME280;47518;51.776;9.370;2023-06-19T01:46:49;99703.13;;;23.23;41.55
61618;BME280;47518;51.776;9.370;2023-06-19T01:49:15;99698.72;;;23.27;41.25
61618;BME280;47518;51.776;9.370;2023-06-19T01:51:40;99699.53;;;23.18;41.03
61618;BME280;47518;51.776;9.370;2023-06-19T01:54:06;99699.22;;;23.14;41.24
61618;BME280;47518;51.776;9.370;2023-06-19T01:56:31;99691.22;;;23.23;41.03
61618;BME280;47518;51.776;9.370;2023-06-19T01:58:57;99681.50;;;23.25;41.21
61618;BME280;47518;51.776;9.370;2023-06-19T02:01:22;99683.75;;;23.28;40.85
61618;BME280;47518;51.776;9.370;2023-06-19T02:03:47;99678.47;;;23.37;41.38
61618;BME280;47518;51.776;9.370;2023-06-19T02:06:13;99673.75;;;23.38;41.37
61618;BME280;47518;51.776;9.370;2023-06-19T02:08:38;99665.97;;;23.09;41.30
61618;BME280;47518;51.776;9.370;2023-06-19T02:11:07;99657.13;;;23.33;41.16
61618;BME280;47518;51.776;9.370;2023-06-19T02:13:33;99663.19;;;23.24;42.23
61618;BME280;47518;51.776;9.370;2023-06-19T02:15:58;99654.34;;;23.33;41.10
61618;BME280;47518;51.776;9.370;2023-06-19T02:18:23;99663.78;;;23.42;40.84
61618;BME280;47518;51.776;9.370;2023-06-19T02:20:49;99664.91;;;23.41;40.93
61618;BME280;47518;51.776;9.370;2023-06-19T02:23:14;99662.94;;;23.56;40.56
61618;BME280;47518;51.776;9.370;2023-06-19T02:25:45;99663.78;;;23.47;40.61
61618;BME280;47518;51.776;9.370;2023-06-19T02:28:11;99676.53;;;23.48;40.27
61618;BME280;47518;51.776;9.370;2023-06-19T02:30:36;99677.09;;;23.45;40.89
61618;BME280;47518;51.776;9.370;2023-06-19T02:33:01;99677.09;;;23.29;40.61
61618;BME280;47518;51.776;9.370;2023-06-19T02:35:26;99671.81;;;23.33;40.93
61618;BME280;47518;51.776;9.370;2023-06-19T02:37:52;99676.81;;;23.46;40.72
61618;BME280;47518;51.776;9.370;2023-06-19T02:40:17;99672.38;;;23.35;41.00
61618;BME280;47518;51.776;9.370;2023-06-19T02:42:42;99665.16;;;23.34;40.44
61618;BME280;47518;51.776;9.370;2023-06-19T02:45:08;99665.44;;;23.38;41.42
61618;BME280;47518;51.776;9.370;2023-06-19T02:47:33;99672.66;;;23.39;40.47
61618;BME280;47518;51.776;9.370;2023-06-19T02:49:59;99672.66;;;23.39;42.68
61618;BME280;47518;51.776;9.370;2023-06-19T02:52:25;99663.47;;;23.23;41.54
61618;BME280;47518;51.776;9.370;2023-06-19T02:54:51;99669.31;;;23.32;41.79
61618;BME280;47518;51.776;9.370;2023-06-19T02:57:16;99666.25;;;23.38;42.11
61618;BME280;47518;51.776;9.370;2023-06-19T02:59:41;99669.31;;;23.37;44.07
61618;BME280;47518;51.776;9.370;2023-06-19T03:02:06;99669.88;;;23.34;43.26
61618;BME280;47518;51.776;9.370;2023-06-19T03:04:32;99670.94;;;22.97;45.10
61618;BME280;47518;51.776;9.370;2023-06-19T03:06:57;99673.75;;;23.17;43.53
61618;BME280;47518;51.776;9.370;2023-06-19T03:09:22;99680.34;;;23.01;44.74
61618;BME280;47518;51.776;9.370;2023-06-19T03:11:48;99686.44;;;23.03;44.40
61618;BME280;47518;51.776;9.370;2023-06-19T03:14:13;99696.44;;;22.99;44.46
61618;BME280;47518;51.776;9.370;2023-06-19T03:16:38;99697.78;;;22.86;44.73
61618;BME280;47518;51.776;9.370;2023-06-19T03:19:03;99696.16;;;22.95;45.49
61618;BME280;47518;51.776;9.370;2023-06-19T03:21:29;99699.06;;;22.68;45.93
61618;BME280;47518;51.776;9.370;2023-06-19T03:23:54;99700.53;;;22.81;44.93
61618;BME280;47518;51.776;9.370;2023-06-19T03:26:20;99702.50;;;22.91;45.43
61618;BME280;47518;51.776;9.370;2023-06-19T03:28:45;99692.44;;;22.75;46.44
61618;BME280;47518;51.776;9.370;2023-06-19T03:31:12;99700.47;;;22.71;45.81
61618;BME280;47518;51.776;9.370;2023-06-19T03:33:38;99714.28;;;22.61;46.66
61618;BME280;47518;51.776;9.370;2023-06-19T03:36:03;99705.66;;;22.57;46.28
61618;BME280;47518;51.776;9.370;2023-06-19T03:38:29;99689.53;;;22.44;47.06
61618;BME280;47518;51.776;9.370;2023-06-19T03:40:54;99709.31;;;22.63;47.25
61618;BME280;47518;51.776;9.370;2023-06-19T03:43:19;99699.59;;;22.60;47.04
61618;BME280;47518;51.776;9.370;2023-06-19T03:45:45;99699.88;;;22.64;46.58
61618;BME280;47518;51.776;9.370;2023-06-19T03:48:10;99706.22;;;22.54;47.04
61618;BME280;47518;51.776;9.370;2023-06-19T03:50:35;99701.25;;;22.61;45.89
61618;BME280;47518;51.776;9.370;2023-06-19T03:53:01;99701.81;;;22.58;46.46
61618;BME280;47518;51.776;9.370;2023-06-19T03:55:26;99698.50;;;22.61;46.36
61618;BME280;47518;51.776;9.370;2023-06-19T03:57:51;99700.72;;;22.64;46.71
61618;BME280;47518;51.776;9.370;2023-06-19T04:00:18;99689.63;;;22.64;47.83
61618;BME280;47518;51.776;9.370;2023-06-19T04:02:43;99688.28;;;22.77;47.78
61618;BME280;47518;51.776;9.370;2023-06-19T04:05:11;99693.28;;;22.70;48.59
61618;BME280;47518;51.776;9.370;2023-06-19T04:07:36;99700.16;;;22.67;47.80
61618;BME280;47518;51.776;9.370;2023-06-19T04:10:02;99696.03;;;22.70;48.38
61618;BME280;47518;51.776;9.370;2023-06-19T04:12:27;99693.22;;;22.60;49.40
61618;BME280;47518;51.776;9.370;2023-06-19T04:14:53;99697.66;;;22.61;49.80
61618;BME280;47518;51.776;9.370;2023-06-19T04:17:18;99695.41;;;22.53;49.85
61618;BME280;47518;51.776;9.370;2023-06-19T04:22:09;99699.50;;;22.40;49.37
61618;BME280;47518;51.776;9.370;2023-06-19T04:24:35;99702.59;;;22.49;48.95
61618;BME280;47518;51.776;9.370;2023-06-19T04:27:00;99705.03;;;22.40;49.72
61618;BME280;47518;51.776;9.370;2023-06-19T04:29:26;99700.59;;;22.39;50.04
61618;BME280;47518;51.776;9.370;2023-06-19T04:31:51;99703.44;;;22.49;49.73
61618;BME280;47518;51.776;9.370;2023-06-19T04:34:17;99698.44;;;22.46;49.89
61618;BME280;47518;51.776;9.370;2023-06-19T04:36:47;99699.81;;;22.49;49.31
61618;BME280;47518;51.776;9.370;2023-06-19T04:39:13;99708.97;;;22.49;50.61
61618;BME280;47518;51.776;9.370;2023-06-19T04:41:38;99710.91;;;22.49;50.07
61618;BME280;47518;51.776;9.370;2023-06-19T04:44:05;99713.41;;;22.50;49.95
61618;BME280;47518;51.776;9.370;2023-06-19T04:46:30;99719.22;;;22.49;49.49
61618;BME280;47518;51.776;9.370;2023-06-19T04:48:56;99724.41;;;22.40;50.58
61618;BME280;47518;51.776;9.370;2023-06-19T04:51:21;99723.31;;;22.36;49.82
61618;BME280;47518;51.776;9.370;2023-06-19T04:53:48;99736.66;;;22.49;50.58
61618;BME280;47518;51.776;9.370;2023-06-19T04:56:14;99738.59;;;22.49;51.41
61618;BME280;47518;51.776;9.370;2023-06-19T04:58:40;99730.31;;;22.54;50.28
61618;BME280;47518;51.776;9.370;2023-06-19T05:01:12;99739.09;;;22.35;53.07
61618;BME280;47518;51.776;9.370;2023-06-19T05:03:37;99724.44;;;22.45;51.84
61618;BME280;47518;51.776;9.370;2023-06-19T05:06:03;99735.00;;;22.53;52.79
61618;BME280;47518;51.776;9.370;2023-06-19T05:08:31;99714.25;;;22.56;52.90
61618;BME280;47518;51.776;9.370;2023-06-19T05:10:57;99727.78;;;22.47;54.61
61618;BME280;47518;51.776;9.370;2023-06-19T05:13:23;99731.06;;;22.39;54.76
61618;BME280;47518;51.776;9.370;2023-06-19T05:15:49;99743.47;;;22.31;54.99
61618;BME280;47518;51.776;9.370;2023-06-19T05:18:15;99745.38;;;22.26;54.72
61618;BME280;47518;51.776;9.370;2023-06-19T05:20:41;99758.41;;;22.25;55.76
61618;BME280;47518;51.776;9.370;2023-06-19T05:23:06;99759.69;;;22.12;57.13
61618;BME280;47518;51.776;9.370;2023-06-19T05:25:31;99771.34;;;22.15;57.04
61618;BME280;47518;51.776;9.370;2023-06-19T05:27:57;99774.53;;;22.01;57.97
61618;BME280;47518;51.776;9.370;2023-06-19T05:30:22;99774.81;;;22.00;57.97
61618;BME280;47518;51.776;9.370;2023-06-19T05:32:47;99781.47;;;22.04;57.72
61618;BME280;47518;51.776;9.370;2023-06-19T05:35:16;99773.69;;;22.01;57.16
61618;BME280;47518;51.776;9.370;2023-06-19T05:37:41;99778.41;;;22.00;57.59
61618;BME280;47518;51.776;9.370;2023-06-19T05:40:09;99777.84;;;22.03;57.77
61618;BME280;47518;51.776;9.370;2023-06-19T05:42:36;99770.94;;;22.01;57.84
61618;BME280;47518;51.776;9.370;2023-06-19T05:45:05;99762.00;;;22.26;57.84
61618;BME280;47518;51.776;9.370;2023-06-19T05:47:33;99765.00;;;22.19;58.76
61618;BME280;47518;51.776;9.370;2023-06-19T05:49:58;99769.13;;;22.17;59.62
61618;BME280;47518;51.776;9.370;2023-06-19T05:52:27;99779.53;;;22.04;58.58
61618;BME280;47518;51.776;9.370;2023-06-19T05:54:59;99783.59;;;21.97;59.09
61618;BME280;47518;51.776;9.370;2023-06-19T05:57:24;99776.81;;;22.09;60.24
61618;BME280;47518;51.776;9.370;2023-06-19T05:59:50;99785.97;;;22.10;60.24
61618;BME280;47518;51.776;9.370;2023-06-19T06:02:19;99780.28;;;22.27;58.79
61618;BME280;47518;51.776;9.370;2023-06-19T06:05:18;99789.00;;;22.08;60.14
61618;BME280;47518;51.776;9.370;2023-06-19T06:07:46;99789.63;;;22.21;60.42
61618;BME280;47518;51.776;9.370;2023-06-19T06:25:09;99800.38;;;23.02;55.61
61618;BME280;47518;51.776;9.370;2023-06-19T06:27:38;99801.31;;;23.17;54.74
61618;BME280;47518;51.776;9.370;2023-06-19T06:30:08;99811.38;;;23.54;53.84
61618;BME280;47518;51.776;9.370;2023-06-19T06:32:33;99809.78;;;23.73;52.92
61618;BME280;47518;51.776;9.370;2023-06-19T06:35:02;99812.59;;;24.09;52.68
61618;BME280;47518;51.776;9.370;2023-06-19T06:37:28;99818.16;;;24.44;53.15
61618;BME280;47518;51.776;9.370;2023-06-19T06:39:57;99817.56;;;24.27;49.70
61618;BME280;47518;51.776;9.370;2023-06-19T06:42:23;99818.97;;;24.55;50.13
61618;BME280;47518;51.776;9.370;2023-06-19T06:44:54;99826.44;;;24.70;49.12
61618;BME280;47518;51.776;9.370;2023-06-19T06:47:23;99820.03;;;24.80;50.50
61618;BME280;47518;51.776;9.370;2023-06-19T06:49:48;99820.78;;;25.00;49.81
61618;BME280;47518;51.776;9.370;2023-06-19T06:52:14;99826.53;;;25.29;47.56
61618;BME280;47518;51.776;9.370;2023-06-19T06:54:42;99822.97;;;25.19;45.73
61618;BME280;47518;51.776;9.370;2023-06-19T06:57:10;99827.22;;;25.55;43.05
61618;BME280;47518;51.776;9.370;2023-06-19T06:59:37;99816.88;;;25.71;42.28
61618;BME280;47518;51.776;9.370;2023-06-19T07:02:02;99821.97;;;25.93;41.29
61618;BME280;47518;51.776;9.370;2023-06-19T07:07:13;99822.88;;;25.88;40.94
61618;BME280;47518;51.776;9.370;2023-06-19T07:09:41;99823.09;;;25.97;40.02
61618;BME280;47518;51.776;9.370;2023-06-19T07:12:07;99825.72;;;26.17;39.46
61618;BME280;47518;51.776;9.370;2023-06-19T07:14:33;99820.72;;;26.14;40.15
61618;BME280;47518;51.776;9.370;2023-06-19T07:16:58;99816.41;;;26.27;39.71
61618;BME280;47518;51.776;9.370;2023-06-19T07:19:24;99818.41;;;26.56;38.99
61618;BME280;47518;51.776;9.370;2023-06-19T07:21:53;99821.75;;;26.58;39.70
61618;BME280;47518;51.776;9.370;2023-06-19T07:24:21;99823.88;;;26.03;39.29
61618;BME280;47518;51.776;9.370;2023-06-19T07:26:55;99832.06;;;26.23;40.07
61618;BME280;47518;51.776;9.370;2023-06-19T07:29:22;99838.34;;;26.39;38.93
61618;BME280;47518;51.776;9.370;2023-06-19T07:31:54;99830.31;;;26.66;39.71
61618;BME280;47518;51.776;9.370;2023-06-19T07:34:39;99819.88;;;26.48;40.00
61618;BME280;47518;51.776;9.370;2023-06-19T07:37:48;99815.75;;;26.69;40.38
61618;BME280;47518;51.776;9.370;2023-06-19T07:40:43;99827.72;;;26.99;39.00
61618;BME280;47518;51.776;9.370;2023-06-19T07:43:30;99827.16;;;26.97;38.68
61618;BME280;47518;51.776;9.370;2023-06-19T07:46:04;99821.53;;;27.26;39.29
61618;BME280;47518;51.776;9.370;2023-06-19T07:48:29;99825.44;;;27.49;38.63
61618;BME280;47518;51.776;9.370;2023-06-19T07:51:04;99828.88;;;27.22;38.53
61618;BME280;47518;51.776;9.370;2023-06-19T07:53:32;99824.13;;;26.93;39.89
61618;BME280;47518;51.776;9.370;2023-06-19T07:56:03;99833.03;;;26.42;41.16
61618;BME280;47518;51.776;9.370;2023-06-19T07:58:45;99830.50;;;26.46;41.76
61618;BME280;47518;51.776;9.370;2023-06-19T08:01:29;99832.56;;;26.30;42.65
61618;BME280;47518;51.776;9.370;2023-06-19T08:03:57;99832.69;;;26.49;43.19
61618;BME280;47518;51.776;9.370;2023-06-19T08:06:23;99827.38;;;26.53;43.01
61618;BME280;47518;51.776;9.370;2023-06-19T08:09:11;99833.28;;;26.46;43.22
61618;BME280;47518;51.776;9.370;2023-06-19T08:11:37;99835.88;;;26.66;42.82
61618;BME280;47518;51.776;9.370;2023-06-19T08:14:09;99830.31;;;26.66;42.42
61618;BME280;47518;51.776;9.370;2023-06-19T08:16:43;99832.34;;;27.09;41.49
61618;BME280;47518;51.776;9.370;2023-06-19T08:19:12;99841.31;;;27.06;42.46
61618;BME280;47518;51.776;9.370;2023-06-19T08:21:40;99843.16;;;27.15;44.18
61618;BME280;47518;51.776;9.370;2023-06-19T08:24:06;99849.34;;;26.83;43.32
61618;BME280;47518;51.776;9.370;2023-06-19T08:26:34;99850.81;;;27.04;43.72
61618;BME280;47518;51.776;9.370;2023-06-19T08:29:00;99845.22;;;27.28;42.68
61618;BME280;47518;51.776;9.370;2023-06-19T08:31:26;99848.81;;;27.34;44.07
61618;BME280;47518;51.776;9.370;2023-06-19T08:33:54;99850.28;;;27.26;44.79
61618;BME280;47518;51.776;9.370;2023-06-19T08:36:23;99846.22;;;27.38;44.78
61618;BME280;47518;51.776;9.370;2023-06-19T08:38:57;99844.09;;;27.29;45.17
61618;BME280;47518;51.776;9.370;2023-06-19T08:41:23;99844.56;;;27.37;44.96
61618;BME280;47518;51.776;9.370;2023-06-19T08:44:05;99845.03;;;27.44;44.48
61618;BME280;47518;51.776;9.370;2023-06-19T08:46:31;99849.16;;;27.27;44.83
61618;BME280;47518;51.776;9.370;2023-06-19T08:48:59;99845.09;;;26.91;45.67
61618;BME280;47518;51.776;9.370;2023-06-19T08:51:30;99845.78;;;27.07;45.33
61618;BME280;47518;51.776;9.370;2023-06-19T08:54:06;99852.44;;;27.11;44.96
61618;BME280;47518;51.776;9.370;2023-06-19T08:56:37;99847.25;;;26.99;45.62
61618;BME280;47518;51.776;9.370;2023-06-19T08:59:13;99851.94;;;27.03;44.94
61618;BME280;47518;51.776;9.370;2023-06-19T09:01:51;99859.03;;;26.91;45.90
61618;BME280;47518;51.776;9.370;2023-06-19T09:07:29;99865.13;;;26.98;46.18
61618;BME280;47518;51.776;9.370;2023-06-19T09:10:10;99864.13;;;27.13;43.87
61618;BME280;47518;51.776;9.370;2023-06-19T09:12:39;99867.13;;;27.40;46.15
61618;BME280;47518;51.776;9.370;2023-06-19T09:15:11;99868.34;;;27.10;45.04
61618;BME280;47518;51.776;9.370;2023-06-19T09:17:37;99875.63;;;27.30;45.10
61618;BME280;47518;51.776;9.370;2023-06-19T09:20:03;99882.41;;;27.24;45.19
61618;BME280;47518;51.776;9.370;2023-06-19T09:22:31;99888.38;;;26.88;45.90
61618;BME280;47518;51.776;9.370;2023-06-19T09:25:03;99888.47;;;26.78;45.66
61618;BME280;47518;51.776;9.370;2023-06-19T09:27:34;99885.81;;;26.92;46.18
61618;BME280;47518;51.776;9.370;2023-06-19T09:30:01;99886.03;;;27.24;46.17
61618;BME280;47518;51.776;9.370;2023-06-19T09:32:28;99890.38;;;27.36;44.56
61618;BME280;47518;51.776;9.370;2023-06-19T09:35:00;99882.75;;;27.41;44.98
61618;BME280;47518;51.776;9.370;2023-06-19T09:37:30;99885.53;;;27.17;47.22
61618;BME280;47518;51.776;9.370;2023-06-19T09:40:01;99880.34;;;27.11;47.71
61618;BME280;47518;51.776;9.370;2023-06-19T09:42:40;99877.28;;;27.07;46.93
61618;BME280;47518;51.776;9.370;2023-06-19T09:45:15;99888.00;;;26.95;46.45
61618;BME280;47518;51.776;9.370;2023-06-19T09:47:46;99871.66;;;27.12;46.44
61618;BME280;47518;51.776;9.370;2023-06-19T09:50:15;99884.25;;;26.81;47.92
61618;BME280;47518;51.776;9.370;2023-06-19T09:52:47;99884.78;;;27.12;47.20
61618;BME280;47518;51.776;9.370;2023-06-19T09:55:17;99887.38;;;27.51;46.77
61618;BME280;47518;51.776;9.370;2023-06-19T09:57:44;99882.84;;;27.12;46.36
61618;BME280;47518;51.776;9.370;2023-06-19T10:00:11;99881.91;;;27.41;46.04
61618;BME280;47518;51.776;9.370;2023-06-19T10:02:40;99882.00;;;27.36;45.17
61618;BME280;47518;51.776;9.370;2023-06-19T10:05:10;99878.28;;;27.40;45.19
61618;BME280;47518;51.776;9.370;2023-06-19T10:07:38;99878.97;;;27.75;44.73
61618;BME280;47518;51.776;9.370;2023-06-19T10:10:11;99882.16;;;27.87;45.93
61618;BME280;47518;51.776;9.370;2023-06-19T10:12:44;99883.97;;;27.54;47.33
61618;BME280;47518;51.776;9.370;2023-06-19T10:18:00;99890.84;;;27.61;47.30
61618;BME280;47518;51.776;9.370;2023-06-19T10:20:32;99900.41;;;27.37;46.50
61618;BME280;47518;51.776;9.370;2023-06-19T10:36:19;99909.06;;;26.53;48.87
61618;BME280;47518;51.776;9.370;2023-06-19T10:38:46;99913.41;;;26.25;50.02
61618;BME280;47518;51.776;9.370;2023-06-19T10:41:21;99901.31;;;26.74;49.01
61618;BME280;47518;51.776;9.370;2023-06-19T10:44:04;99900.16;;;26.80;49.50
61618;BME280;47518;51.776;9.370;2023-06-19T10:46:31;99901.22;;;27.13;48.53
61618;BME280;47518;51.776;9.370;2023-06-19T10:48:59;99894.88;;;27.55;46.66
61618;BME280;47518;51.776;9.370;2023-06-19T10:51:26;99893.84;;;27.46;46.31
61618;BME280;47518;51.776;9.370;2023-06-19T10:53:58;99901.31;;;27.51;46.02
61618;BME280;47518;51.776;9.370;2023-06-19T10:56:24;99914.06;;;27.14;46.41
61618;BME280;47518;51.776;9.370;2023-06-19T11:01:45;99910.75;;;27.55;45.29
61618;BME280;47518;51.776;9.370;2023-06-19T11:04:12;99911.31;;;27.57;45.47
61618;BME280;47518;51.776;9.370;2023-06-19T11:06:39;99902.91;;;28.00;44.37
61618;BME280;47518;51.776;9.370;2023-06-19T11:09:07;99910.00;;;27.49;46.44
61618;BME280;47518;51.776;9.370;2023-06-19T11:11:35;99904.25;;;27.41;45.33
61618;BME280;47518;51.776;9.370;2023-06-19T11:14:01;99905.25;;;27.50;44.46
61618;BME280;47518;51.776;9.370;2023-06-19T11:16:26;99904.22;;;28.07;44.41
61618;BME280;47518;51.776;9.370;2023-06-19T11:18:56;99908.88;;;28.50;42.93
61618;BME280;47518;51.776;9.370;2023-06-19T11:21:29;99916.00;;;28.42;42.19
61618;BME280;47518;51.776;9.370;2023-06-19T11:23:57;99907.63;;;28.74;42.10
61618;BME280;47518;51.776;9.370;2023-06-19T11:26:24;99908.94;;;28.63;42.76
61618;BME280;47518;51.776;9.370;2023-06-19T11:28:50;99913.50;;;28.22;42.81
61618;BME280;47518;51.776;9.370;2023-06-19T11:31:15;99920.47;;;27.39;45.22
61618;BME280;47518;51.776;9.370;2023-06-19T11:33:41;99924.28;;;27.48;45.24
61618;BME280;47518;51.776;9.370;2023-06-19T11:36:09;99922.41;;;27.62;45.03
61618;BME280;47518;51.776;9.370;2023-06-19T11:38:36;99915.06;;;27.71;45.80
61618;BME280;47518;51.776;9.370;2023-06-19T11:41:03;99919.03;;;27.65;45.35
61618;BME280;47518;51.776;9.370;2023-06-19T11:43:30;99900.00;;;27.24;45.24
61618;BME280;47518;51.776;9.370;2023-06-19T11:46:04;99904.75;;;27.90;45.68
61618;BME280;47518;51.776;9.370;2023-06-19T11:48:30;99905.59;;;27.91;45.06
61618;BME280;47518;51.776;9.370;2023-06-19T11:50:55;99909.53;;;27.66;44.44
61618;BME280;47518;51.776;9.370;2023-06-19T11:53:22;99902.19;;;27.27;44.28
61618;BME280;47518;51.776;9.370;2023-06-19T11:55:49;99914.38;;;27.08;45.25
61618;BME280;47518;51.776;9.370;2023-06-19T11:58:14;99919.34;;;27.40;45.58
61618;BME280;47518;51.776;9.370;2023-06-19T12:00:42;99910.22;;;27.53;44.85
61618;BME280;47518;51.776;9.370;2023-06-19T12:03:08;99911.22;;;27.67;45.32
61618;BME280;47518;51.776;9.370;2023-06-19T12:05:34;99917.72;;;27.81;43.59
61618;BME280;47518;51.776;9.370;2023-06-19T12:08:00;99913.50;;;27.84;43.28
61618;BME280;47518;51.776;9.370;2023-06-19T12:10:28;99914.22;;;27.89;45.11
61618;BME280;47518;51.776;9.370;2023-06-19T12:12:53;99910.00;;;28.11;43.15
61618;BME280;47518;51.776;9.370;2023-06-19T12:15:18;99908.66;;;28.08;42.07
61618;BME280;47518;51.776;9.370;2023-06-19T12:17:45;99905.19;;;27.98;42.38
61618;BME280;47518;51.776;9.370;2023-06-19T12:20:11;99907.81;;;27.89;42.22
61618;BME280;47518;51.776;9.370;2023-06-19T12:22:39;99904.50;;;27.87;44.42
61618;BME280;47518;51.776;9.370;2023-06-19T12:25:04;99908.00;;;28.16;42.58
61618;BME280;47518;51.776;9.370;2023-06-19T12:27:30;99905.34;;;27.87;41.97
61618;BME280;47518;51.776;9.370;2023-06-19T12:29:55;99911.50;;;28.27;42.33
61618;BME280;47518;51.776;9.370;2023-06-19T12:32:20;99905.66;;;28.05;42.96
61618;BME280;47518;51.776;9.370;2023-06-19T12:34:46;99908.19;;;28.01;41.65
61618;BME280;47518;51.776;9.370;2023-06-19T12:37:14;99902.47;;;27.93;42.13
61618;BME280;47518;51.776;9.370;2023-06-19T12:39:43;99906.25;;;27.83;43.33
61618;BME280;47518;51.776;9.370;2023-06-19T12:42:09;99907.22;;;28.11;42.10
61618;BME280;47518;51.776;9.370;2023-06-19T12:44:37;99899.84;;;28.39;40.89
61618;BME280;47518;51.776;9.370;2023-06-19T12:47:02;99900.00;;;28.29;41.09
61618;BME280;47518;51.776;9.370;2023-06-19T12:49:30;99892.31;;;28.53;40.68
61618;BME280;47518;51.776;9.370;2023-06-19T12:51:55;99902.16;;;28.83;40.39
61618;BME280;47518;51.776;9.370;2023-06-19T12:54:20;99904.44;;;28.48;40.19
61618;BME280;47518;51.776;9.370;2023-06-19T12:56:45;99896.31;;;28.47;40.16
61618;BME280;47518;51.776;9.370;2023-06-19T12:59:11;99900.81;;;28.29;41.33
61618;BME280;47518;51.776;9.370;2023-06-19T13:01:36;99904.97;;;28.32;40.93
61618;BME280;47518;51.776;9.370;2023-06-19T13:04:11;99905.34;;;28.44;40.41
61618;BME280;47518;51.776;9.370;2023-06-19T13:06:46;99899.25;;;28.56;40.30
61618;BME280;47518;51.776;9.370;2023-06-19T13:09:11;99911.53;;;28.41;40.80
61618;BME280;47518;51.776;9.370;2023-06-19T13:11:37;99902.75;;;28.47;42.01
61618;BME280;47518;51.776;9.370;2023-06-19T13:14:02;99897.78;;;28.44;41.83
61618;BME280;47518;51.776;9.370;2023-06-19T13:16:27;99897.44;;;28.65;40.59
61618;BME280;47518;51.776;9.370;2023-06-19T13:18:53;99902.03;;;28.74;40.99
61618;BME280;47518;51.776;9.370;2023-06-19T13:21:18;99902.81;;;28.24;41.88
61618;BME280;47518;51.776;9.370;2023-06-19T13:23:44;99896.75;;;28.03;41.14
61618;BME280;47518;51.776;9.370;2023-06-19T13:26:09;99907.91;;;28.03;42.09
61618;BME280;47518;51.776;9.370;2023-06-19T13:28:36;99903.88;;;27.90;43.15
61618;BME280;47518;51.776;9.370;2023-06-19T13:31:02;99904.94;;;27.75;41.59
61618;BME280;47518;51.776;9.370;2023-06-19T13:33:27;99907.16;;;27.97;41.90
61618;BME280;47518;51.776;9.370;2023-06-19T13:35:53;99914.56;;;28.26;40.99
61618;BME280;47518;51.776;9.370;2023-06-19T13:38:18;99913.50;;;28.03;41.26
61618;BME280;47518;51.776;9.370;2023-06-19T13:40:43;99908.47;;;27.38;41.51
61618;BME280;47518;51.776;9.370;2023-06-19T13:43:09;99919.03;;;27.65;43.71
61618;BME280;47518;51.776;9.370;2023-06-19T13:45:34;99904.53;;;27.63;41.63